Time;durP1;ratioP1;P1;durP2;ratioP2;P2;SDS_P1;SDS_P2;PMS_P1;PMS_P2;Temp;Humidity;BMP_temperature;BMP_pressure;BME280_temperature;BME280_humidity;BME280_pressure;Samples;Min_cycle;Max_cycle;Signal;HPM_P1;HPM_P2
2023/10/27 00:02:24;;;;;;;0.22;0.20;;;10.00;99.90;;;;;;5048300;28;20044;-76
2023/10/27 00:04:50;;;;;;;3.20;0.68;;;10.00;99.90;;;;;;5048343;28;20029;-76
2023/10/27 00:07:16;;;;;;;0.55;0.40;;;10.00;99.90;;;;;;5048870;28;20048;-75
2023/10/27 00:09:43;;;;;;;4.28;1.30;;;10.00;99.90;;;;;;5049684;28;20033;-78
2023/10/27 00:12:09;;;;;;;1.15;0.88;;;10.00;99.90;;;;;;5047655;28;20036;-76
2023/10/27 00:14:35;;;;;;;0.10;0.10;;;9.90;99.90;;;;;;5033133;28;20040;-76
2023/10/27 00:17:01;;;;;;;0.17;0.17;;;10.00;99.90;;;;;;5028249;28;20052;-75
2023/10/27 00:19:27;;;;;;;4.38;1.58;;;10.00;99.90;;;;;;5048160;28;20033;-76
2023/10/27 00:21:53;;;;;;;0.30;0.30;;;10.00;99.90;;;;;;5049122;28;20462;-76
2023/10/27 00:24:20;;;;;;;0.10;0.10;;;10.00;99.90;;;;;;5049628;28;20474;-76
2023/10/27 00:26:46;;;;;;;1.27;0.50;;;10.00;99.90;;;;;;5048794;28;20036;-78
2023/10/27 00:29:12;;;;;;;0.20;0.20;;;10.10;99.90;;;;;;5052577;28;20056;-75
2023/10/27 00:31:38;;;;;;;0.15;0.15;;;10.00;99.90;;;;;;5048705;28;20029;-76
2023/10/27 00:34:05;;;;;;;0.45;0.43;;;10.00;99.90;;;;;;5047819;28;20588;-76
2023/10/27 00:36:31;;;;;;;0.55;0.35;;;10.00;99.90;;;;;;5050277;28;20048;-76
2023/10/27 00:38:57;;;;;;;0.70;0.70;;;9.90;99.90;;;;;;5046729;28;20029;-76
2023/10/27 00:41:24;;;;;;;0.90;0.68;;;10.00;99.90;;;;;;5048927;28;20029;-76
2023/10/27 00:43:50;;;;;;;0.40;0.40;;;9.90;99.90;;;;;;5049130;28;20044;-77
2023/10/27 00:46:16;;;;;;;2.63;1.00;;;10.00;99.90;;;;;;5050089;28;20041;-76
2023/10/27 00:48:43;;;;;;;0.50;0.47;;;9.90;99.90;;;;;;5046614;28;20394;-76
2023/10/27 00:51:09;;;;;;;4.25;1.00;;;9.90;99.90;;;;;;5048530;28;20037;-76
2023/10/27 00:53:37;;;;;;;0.20;0.20;;;9.90;99.90;;;;;;5049193;28;20481;-76
2023/10/27 00:56:04;;;;;;;0.52;0.45;;;9.90;99.90;;;;;;5049230;28;20048;-76
2023/10/27 00:58:31;;;;;;;0.95;0.57;;;9.90;99.90;;;;;;5047973;28;20024;-76
2023/10/27 01:01:02;;;;;;;1.08;0.98;;;9.90;99.90;;;;;;5048756;28;20053;-74
2023/10/27 01:03:29;;;;;;;0.20;0.20;;;9.90;99.90;;;;;;5049057;28;20045;-74
2023/10/27 01:05:55;;;;;;;4.95;1.90;;;9.90;99.90;;;;;;5015904;28;20044;-74
2023/10/27 01:08:22;;;;;;;1.98;0.55;;;9.90;99.90;;;;;;5046700;28;20048;-74
2023/10/27 01:10:48;;;;;;;1.98;1.30;;;10.00;99.90;;;;;;5047413;28;20039;-75
2023/10/27 01:13:14;;;;;;;0.10;0.10;;;10.00;99.90;;;;;;5050530;28;20029;-75
2023/10/27 01:15:41;;;;;;;0.35;0.35;;;10.00;99.90;;;;;;5040005;28;20052;-74
2023/10/27 01:18:07;;;;;;;0.08;0.08;;;10.00;99.90;;;;;;5049257;28;20045;-74
2023/10/27 01:20:33;;;;;;;0.28;0.22;;;10.00;99.90;;;;;;5052637;28;20032;-74
2023/10/27 01:23:03;;;;;;;5.15;0.85;;;10.00;99.90;;;;;;5051519;28;20037;-74
2023/10/27 01:25:29;;;;;;;0.47;0.38;;;10.00;99.90;;;;;;5051368;28;20041;-74
2023/10/27 01:27:57;;;;;;;0.60;0.60;;;10.00;99.90;;;;;;5031720;28;20045;-74
2023/10/27 01:30:24;;;;;;;3.17;1.15;;;10.00;99.90;;;;;;5049561;28;20469;-74
2023/10/27 01:32:50;;;;;;;0.80;0.75;;;10.10;99.90;;;;;;5052098;28;20462;-76
2023/10/27 01:35:16;;;;;;;0.35;0.35;;;10.10;99.90;;;;;;5049400;28;20446;-75
2023/10/27 01:37:43;;;;;;;0.08;0.08;;;10.10;99.90;;;;;;5052178;28;20450;-74
2023/10/27 01:40:10;;;;;;;0.47;0.47;;;10.10;99.90;;;;;;5049444;28;20021;-74
2023/10/27 01:42:36;;;;;;;0.55;0.55;;;10.10;99.90;;;;;;5054622;28;20036;-74
2023/10/27 01:45:06;;;;;;;0.80;0.75;;;10.10;99.90;;;;;;5034671;28;20052;-74
2023/10/27 01:47:32;;;;;;;0.73;0.45;;;10.20;99.90;;;;;;5050380;28;20053;-76
2023/10/27 01:49:58;;;;;;;1.95;0.80;;;10.20;99.90;;;;;;5051244;28;20036;-75
2023/10/27 01:52:25;;;;;;;0.98;0.73;;;10.20;99.90;;;;;;5050424;28;20040;-74
2023/10/27 01:54:53;;;;;;;5.47;0.98;;;10.30;99.90;;;;;;5051744;28;20033;-76
2023/10/27 01:57:23;;;;;;;4.65;0.98;;;10.30;99.90;;;;;;5049912;28;20045;-75
2023/10/27 01:59:50;;;;;;;0.77;0.77;;;10.30;99.90;;;;;;5031960;28;20041;-77
2023/10/27 02:02:16;;;;;;;0.88;0.70;;;10.40;99.90;;;;;;5050212;28;20497;-74
2023/10/27 02:04:43;;;;;;;2.78;1.42;;;10.40;99.90;;;;;;5030664;28;20380;-74
2023/10/27 02:07:09;;;;;;;2.15;1.90;;;10.50;99.90;;;;;;5048246;28;20082;-75
2023/10/27 02:09:36;;;;;;;8.50;0.73;;;10.50;99.90;;;;;;5048799;28;20034;-74
2023/10/27 02:12:03;;;;;;;1.05;0.85;;;10.60;99.90;;;;;;5050476;28;20049;-75
2023/10/27 02:14:29;;;;;;;0.73;0.73;;;10.70;99.90;;;;;;5051195;28;20056;-75
2023/10/27 02:16:55;;;;;;;0.93;0.65;;;10.70;99.90;;;;;;5014236;28;1082968;-76
2023/10/27 02:19:21;;;;;;;4.22;2.47;;;10.80;99.90;;;;;;5046987;28;20033;-75
2023/10/27 02:21:48;;;;;;;1.58;1.05;;;10.80;99.90;;;;;;5036393;28;20362;-75
2023/10/27 02:24:16;;;;;;;3.00;1.05;;;10.80;99.90;;;;;;5051478;28;20032;-75
2023/10/27 02:26:42;;;;;;;0.65;0.38;;;10.80;99.90;;;;;;5051231;28;20497;-75
2023/10/27 02:29:08;;;;;;;0.40;0.40;;;10.80;99.90;;;;;;5048998;28;20037;-75
2023/10/27 02:31:34;;;;;;;3.10;1.55;;;10.90;99.90;;;;;;5052632;28;20470;-75
2023/10/27 02:34:01;;;;;;;1.08;0.80;;;10.90;99.90;;;;;;5047946;28;20041;-76
2023/10/27 02:36:27;;;;;;;0.75;0.75;;;10.90;99.90;;;;;;5052149;28;20040;-75
2023/10/27 02:38:53;;;;;;;7.05;2.00;;;10.90;99.90;;;;;;5048439;28;20033;-77
2023/10/27 02:41:20;;;;;;;2.00;0.65;;;10.90;99.90;;;;;;5051888;28;20087;-74
2023/10/27 02:43:46;;;;;;;0.20;0.20;;;10.90;99.90;;;;;;5051473;28;20041;-75
2023/10/27 02:46:13;;;;;;;0.52;0.52;;;10.90;99.90;;;;;;5032380;28;20045;-74
2023/10/27 02:48:41;;;;;;;0.40;0.20;;;10.90;99.90;;;;;;5047680;28;20048;-74
2023/10/27 02:51:09;;;;;;;7.53;0.93;;;11.00;99.90;;;;;;5049589;28;20040;-74
2023/10/27 02:53:35;;;;;;;0.65;0.65;;;11.00;99.90;;;;;;5050097;28;20025;-74
2023/10/27 02:56:06;;;;;;;21.60;1.15;;;11.00;99.90;;;;;;5049511;28;20410;-74
2023/10/27 02:58:32;;;;;;;0.55;0.55;;;11.00;99.90;;;;;;5042620;28;20048;-74
2023/10/27 03:00:59;;;;;;;0.13;0.13;;;11.00;99.90;;;;;;5050884;28;20033;-75
2023/10/27 03:03:27;;;;;;;0.10;0.10;;;10.90;99.90;;;;;;5049194;28;20047;-75
2023/10/27 03:05:54;;;;;;;0.93;0.93;;;10.90;99.90;;;;;;5049186;28;20501;-76
2023/10/27 03:08:20;;;;;;;3.20;1.38;;;10.90;99.90;;;;;;5050913;28;20032;-74
2023/10/27 03:10:47;;;;;;;1.65;1.08;;;10.90;99.90;;;;;;5034485;28;20049;-74
2023/10/27 03:13:13;;;;;;;1.48;1.38;;;10.90;99.90;;;;;;5051614;28;20184;-74
2023/10/27 03:15:39;;;;;;;0.55;0.50;;;10.90;99.90;;;;;;5013550;28;20053;-74
2023/10/27 03:18:05;;;;;;;0.75;0.75;;;10.80;99.90;;;;;;5036944;28;20049;-74
2023/10/27 03:20:32;;;;;;;1.17;0.45;;;10.80;99.90;;;;;;5048709;28;20041;-74
2023/10/27 03:22:59;;;;;;;0.63;0.50;;;10.80;99.90;;;;;;5049452;28;20045;-74
2023/10/27 03:25:25;;;;;;;0.52;0.52;;;10.80;99.90;;;;;;5047268;28;20044;-73
2023/10/27 03:27:51;;;;;;;1.17;1.08;;;10.80;99.90;;;;;;5048693;28;20033;-73
2023/10/27 03:30:17;;;;;;;0.25;0.22;;;10.80;99.90;;;;;;5049071;28;20044;-74
2023/10/27 03:32:43;;;;;;;0.52;0.32;;;10.80;99.90;;;;;;5050869;28;20025;-74
2023/10/27 03:35:10;;;;;;;0.47;0.25;;;10.80;99.90;;;;;;5048560;28;20029;-73
2023/10/27 03:37:36;;;;;;;3.72;0.85;;;10.70;99.90;;;;;;5048107;28;20465;-75
2023/10/27 03:40:04;;;;;;;0.10;0.10;;;10.70;99.90;;;;;;5050257;28;20747;-75
2023/10/27 03:42:30;;;;;;;0.85;0.55;;;10.70;99.90;;;;;;5037611;28;20390;-75
2023/10/27 03:44:56;;;;;;;0.55;0.35;;;10.70;99.90;;;;;;5049430;28;20037;-76
2023/10/27 03:47:23;;;;;;;1.05;1.00;;;10.60;99.90;;;;;;5048894;28;20045;-74
2023/10/27 03:49:49;;;;;;;0.35;0.35;;;10.60;99.90;;;;;;5050023;28;20049;-74
2023/10/27 03:52:16;;;;;;;10.35;0.60;;;10.60;99.90;;;;;;5048365;28;20025;-74
2023/10/27 03:54:42;;;;;;;0.20;0.20;;;10.60;99.90;;;;;;5048731;28;20033;-74
2023/10/27 03:57:09;;;;;;;0.20;0.20;;;10.60;99.90;;;;;;5046626;28;20037;-75
2023/10/27 03:59:35;;;;;;;0.08;0.08;;;10.60;99.90;;;;;;5049331;28;20036;-72
2023/10/27 04:02:01;;;;;;;0.10;0.10;;;10.60;99.90;;;;;;5045211;28;20056;-75
2023/10/27 04:04:27;;;;;;;0.47;0.47;;;10.50;99.90;;;;;;5049466;28;20033;-75
2023/10/27 04:06:57;;;;;;;0.10;0.10;;;10.50;99.90;;;;;;5047412;28;20045;-75
2023/10/27 04:09:23;;;;;;;1.55;0.60;;;10.50;99.90;;;;;;5048752;28;20040;-75
2023/10/27 04:11:49;;;;;;;0.20;0.20;;;10.50;99.90;;;;;;5050226;28;20053;-74
2023/10/27 04:14:15;;;;;;;0.10;0.10;;;10.40;99.90;;;;;;5047852;28;20028;-75
2023/10/27 04:16:42;;;;;;;1.05;1.02;;;10.50;99.90;;;;;;5048100;28;20064;-73
2023/10/27 04:19:08;;;;;;;0.32;0.32;;;10.40;99.90;;;;;;5030470;28;20041;-75
2023/10/27 04:21:34;;;;;;;0.30;0.30;;;10.50;99.90;;;;;;5049374;28;20040;-76
2023/10/27 04:24:00;;;;;;;0.68;0.68;;;10.40;99.90;;;;;;5027914;28;20043;-77
2023/10/27 04:26:27;;;;;;;1.85;1.15;;;10.40;99.90;;;;;;5048000;28;20493;-76
2023/10/27 04:28:53;;;;;;;0.20;0.15;;;10.40;99.90;;;;;;5049261;28;20474;-76
2023/10/27 04:31:20;;;;;;;0.10;0.10;;;10.40;99.90;;;;;;5014012;28;20041;-74
2023/10/27 04:33:48;;;;;;;0.45;0.40;;;10.40;99.90;;;;;;5048290;28;20139;-76
2023/10/27 04:36:15;;;;;;;0.43;0.43;;;10.40;99.90;;;;;;5049767;28;20033;-76
2023/10/27 04:38:42;;;;;;;0.00;0.00;;;10.40;99.90;;;;;;5046576;28;20025;-74
2023/10/27 04:41:09;;;;;;;0.00;0.00;;;10.40;99.90;;;;;;5044650;28;20371;-74
2023/10/27 04:43:36;;;;;;;1.65;0.77;;;10.40;99.90;;;;;;5037034;28;20033;-75
2023/10/27 04:46:02;;;;;;;1.92;0.75;;;10.40;99.90;;;;;;5013572;28;20441;-74
2023/10/27 04:48:29;;;;;;;0.17;0.05;;;10.40;99.90;;;;;;5030134;28;20044;-74
2023/10/27 04:51:04;;;;;;;0.30;0.30;;;10.40;99.90;;;;;;5029231;28;20044;-74
2023/10/27 04:53:31;;;;;;;1.60;1.00;;;10.40;99.90;;;;;;5028984;28;20041;-74
2023/10/27 04:55:57;;;;;;;0.50;0.43;;;10.40;99.90;;;;;;5050281;28;20033;-75
2023/10/27 04:58:24;;;;;;;2.47;1.08;;;10.40;99.90;;;;;;5045360;28;20576;-75
2023/10/27 05:00:50;;;;;;;5.60;1.13;;;10.40;99.90;;;;;;5058192;28;20033;-74
2023/10/27 05:03:17;;;;;;;0.50;0.38;;;10.40;99.90;;;;;;5049621;28;20029;-74
2023/10/27 05:05:44;;;;;;;0.38;0.30;;;10.40;99.90;;;;;;5048194;28;20041;-74
2023/10/27 05:08:10;;;;;;;0.30;0.30;;;10.40;99.90;;;;;;5045629;28;20471;-74
2023/10/27 05:10:36;;;;;;;0.52;0.52;;;10.40;99.90;;;;;;5049501;28;20052;-74
2023/10/27 05:13:03;;;;;;;0.55;0.30;;;10.40;99.90;;;;;;5047980;28;20117;-75
2023/10/27 05:15:30;;;;;;;0.38;0.38;;;10.40;99.90;;;;;;5023413;28;20045;-74
2023/10/27 05:17:56;;;;;;;4.15;0.93;;;10.40;99.90;;;;;;5046648;28;20037;-74
2023/10/27 05:20:22;;;;;;;0.52;0.50;;;10.40;99.90;;;;;;5049275;28;20804;-75
2023/10/27 05:22:48;;;;;;;0.95;0.75;;;10.40;99.90;;;;;;5045685;28;20036;-74
2023/10/27 05:25:14;;;;;;;0.75;0.60;;;10.40;99.90;;;;;;5048229;28;20029;-75
2023/10/27 05:27:42;;;;;;;4.03;0.73;;;10.40;99.90;;;;;;5045597;28;20044;-76
2023/10/27 05:30:09;;;;;;;0.30;0.30;;;10.40;99.90;;;;;;5047739;28;20041;-76
2023/10/27 05:32:35;;;;;;;0.17;0.17;;;10.40;99.90;;;;;;5031954;28;20132;-75
2023/10/27 05:35:01;;;;;;;0.20;0.20;;;10.40;99.90;;;;;;5031205;28;20037;-77
2023/10/27 05:37:27;;;;;;;0.15;0.15;;;10.40;99.90;;;;;;5045318;28;20522;-75
2023/10/27 05:39:54;;;;;;;0.28;0.28;;;10.40;99.90;;;;;;5048541;28;20485;-73
2023/10/27 05:42:20;;;;;;;0.10;0.10;;;10.40;99.90;;;;;;5045834;28;20025;-75
2023/10/27 05:44:46;;;;;;;0.90;0.63;;;10.40;99.90;;;;;;5031408;28;20037;-75
2023/10/27 05:47:12;;;;;;;0.15;0.13;;;10.40;99.90;;;;;;5046684;28;20049;-75
2023/10/27 05:49:39;;;;;;;0.10;0.10;;;10.40;99.90;;;;;;5013801;28;20044;-74
2023/10/27 05:52:05;;;;;;;0.40;0.40;;;10.40;99.90;;;;;;5035167;28;20056;-74
2023/10/27 05:54:31;;;;;;;0.45;0.45;;;10.40;99.90;;;;;;5048357;28;20029;-75
2023/10/27 05:56:58;;;;;;;0.63;0.63;;;10.40;99.90;;;;;;5031313;28;20045;-75
2023/10/27 05:59:24;;;;;;;0.85;0.50;;;10.40;99.90;;;;;;5047582;28;20243;-75
2023/10/27 06:01:53;;;;;;;1.35;0.65;;;10.40;99.90;;;;;;5049611;28;20044;-74
2023/10/27 06:04:21;;;;;;;0.63;0.40;;;10.40;99.90;;;;;;5047951;28;20037;-74
2023/10/27 06:06:47;;;;;;;1.35;0.45;;;10.40;99.90;;;;;;5033561;28;20040;-73
2023/10/27 06:09:14;;;;;;;0.45;0.40;;;10.30;99.90;;;;;;5050664;28;20033;-74
2023/10/27 06:11:40;;;;;;;4.85;1.85;;;10.30;99.90;;;;;;5035499;28;20474;-74
2023/10/27 06:14:06;;;;;;;0.55;0.55;;;10.30;99.90;;;;;;5031582;28;20048;-75
2023/10/27 06:16:32;;;;;;;0.52;0.52;;;10.40;99.90;;;;;;5051376;28;20061;-74
2023/10/27 06:18:59;;;;;;;0.25;0.25;;;10.30;99.90;;;;;;5051525;28;20025;-74
2023/10/27 06:21:26;;;;;;;0.65;0.65;;;10.30;99.90;;;;;;5057966;28;20025;-74
2023/10/27 06:23:52;;;;;;;0.45;0.30;;;10.30;99.90;;;;;;5053347;28;20041;-74
2023/10/27 06:26:18;;;;;;;0.35;0.35;;;10.30;99.90;;;;;;5051778;28;20037;-75
2023/10/27 06:28:46;;;;;;;0.28;0.28;;;10.30;99.90;;;;;;5049303;28;20469;-75
2023/10/27 06:31:12;;;;;;;0.10;0.10;;;10.30;99.90;;;;;;5051309;28;20025;-75
2023/10/27 06:33:38;;;;;;;0.15;0.15;;;10.30;99.90;;;;;;5034000;28;20766;-75
2023/10/27 06:36:05;;;;;;;1.95;1.02;;;10.30;99.90;;;;;;5031815;28;20481;-74
2023/10/27 06:38:31;;;;;;;2.17;1.13;;;10.30;99.90;;;;;;5051003;28;20033;-75
2023/10/27 06:40:58;;;;;;;1.58;0.80;;;10.40;99.90;;;;;;5034099;28;20512;-75
2023/10/27 06:43:24;;;;;;;0.40;0.40;;;10.40;99.90;;;;;;5051575;28;20044;-75
2023/10/27 06:45:50;;;;;;;1.35;1.25;;;10.40;99.90;;;;;;5016797;28;20398;-74
2023/10/27 06:48:16;;;;;;;0.32;0.32;;;10.40;99.90;;;;;;5047495;28;20044;-77
2023/10/27 06:50:43;;;;;;;0.32;0.32;;;10.40;99.90;;;;;;5050525;28;20033;-76
2023/10/27 06:53:09;;;;;;;6.65;0.47;;;10.40;99.90;;;;;;5050236;28;20029;-76
2023/10/27 06:55:35;;;;;;;0.20;0.20;;;10.40;99.90;;;;;;5050854;28;20032;-76
2023/10/27 06:58:03;;;;;;;0.95;0.65;;;10.40;99.90;;;;;;5026654;28;20044;-77
2023/10/27 07:00:31;;;;;;;0.15;0.15;;;10.40;99.90;;;;;;5032427;28;20457;-75
2023/10/27 07:02:57;;;;;;;0.63;0.35;;;10.50;99.90;;;;;;5034198;28;20021;-76
2023/10/27 07:05:23;;;;;;;0.13;0.13;;;10.50;99.90;;;;;;5045849;28;20058;-76
2023/10/27 07:07:50;;;;;;;0.52;0.40;;;10.50;99.90;;;;;;5033876;28;20060;-75
2023/10/27 07:10:16;;;;;;;0.45;0.45;;;10.50;99.90;;;;;;5049717;28;20454;-75
2023/10/27 07:12:43;;;;;;;0.10;0.10;;;10.50;99.90;;;;;;5028399;28;20041;-75
2023/10/27 07:15:10;;;;;;;1.65;0.73;;;10.50;99.90;;;;;;5036705;28;20099;-75
2023/10/27 07:17:37;;;;;;;0.00;0.00;;;10.50;99.90;;;;;;5006964;28;20045;-75
2023/10/27 07:20:03;;;;;;;0.22;0.22;;;10.50;99.90;;;;;;5049476;28;20041;-76
2023/10/27 07:22:30;;;;;;;3.10;1.65;;;10.60;99.90;;;;;;5050191;28;20041;-76
2023/10/27 07:24:56;;;;;;;0.52;0.52;;;10.60;99.90;;;;;;5050833;28;20043;-76
2023/10/27 07:27:22;;;;;;;0.05;0.05;;;10.60;99.90;;;;;;5032166;28;20262;-76
2023/10/27 07:29:48;;;;;;;0.08;0.08;;;10.60;99.90;;;;;;5030649;28;20076;-76
2023/10/27 07:32:15;;;;;;;0.65;0.55;;;10.60;99.90;;;;;;5048665;28;20029;-75
2023/10/27 07:34:41;;;;;;;0.20;0.20;;;10.60;99.90;;;;;;5050820;28;20040;-75
2023/10/27 07:37:07;;;;;;;3.03;0.45;;;10.60;99.90;;;;;;5034283;28;20048;-75
2023/10/27 07:39:34;;;;;;;0.35;0.35;;;10.60;99.90;;;;;;5072134;28;20019;-76
2023/10/27 07:42:00;;;;;;;0.20;0.20;;;10.60;99.90;;;;;;5066858;28;20048;-76
2023/10/27 07:44:26;;;;;;;0.10;0.10;;;10.70;99.90;;;;;;5050615;28;20025;-76
2023/10/27 07:46:52;;;;;;;0.40;0.40;;;10.60;99.90;;;;;;5033387;28;20053;-77
2023/10/27 07:49:19;;;;;;;0.10;0.10;;;10.60;99.90;;;;;;5028559;28;20041;-76
2023/10/27 07:51:45;;;;;;;0.10;0.10;;;10.70;99.90;;;;;;5032677;28;20033;-75
2023/10/27 07:54:11;;;;;;;0.10;0.10;;;10.70;99.90;;;;;;5032072;28;20473;-76
2023/10/27 07:56:38;;;;;;;0.38;0.38;;;10.80;99.90;;;;;;5003707;28;20041;-76
2023/10/27 07:59:05;;;;;;;0.20;0.15;;;10.80;99.90;;;;;;5047234;28;20033;-78
2023/10/27 08:01:31;;;;;;;0.30;0.30;;;10.80;99.90;;;;;;5032678;28;20037;-76
2023/10/27 08:03:59;;;;;;;0.10;0.10;;;10.80;99.90;;;;;;5015384;28;20064;-76
2023/10/27 08:06:25;;;;;;;0.10;0.10;;;10.90;99.90;;;;;;5026491;28;20037;-77
2023/10/27 08:08:51;;;;;;;0.10;0.10;;;10.90;99.90;;;;;;5047565;28;20052;-77
2023/10/27 08:11:17;;;;;;;0.10;0.10;;;10.90;99.90;;;;;;5015203;28;20045;-76
2023/10/27 08:13:44;;;;;;;0.10;0.10;;;11.00;99.90;;;;;;5049137;28;20033;-79
2023/10/27 08:16:10;;;;;;;0.00;0.00;;;11.00;99.90;;;;;;5049652;28;20056;-77
2023/10/27 08:18:36;;;;;;;0.10;0.10;;;11.10;99.90;;;;;;5029743;28;20054;-77
2023/10/27 08:21:03;;;;;;;1.95;0.55;;;11.10;97.50;;;;;;5018207;28;20044;-78
2023/10/27 08:23:29;;;;;;;0.30;0.30;;;11.20;37.50;;;;;;5049282;28;20040;-80
2023/10/27 08:25:55;;;;;;;0.10;0.10;;;11.20;40.70;;;;;;5050110;28;20041;-79
2023/10/27 08:28:22;;;;;;;0.10;0.10;;;11.30;36.60;;;;;;5045456;28;20043;-79
2023/10/27 08:30:48;;;;;;;0.10;0.10;;;11.40;21.90;;;;;;5028209;28;20052;-78
2023/10/27 08:33:15;;;;;;;0.08;0.08;;;11.50;7.90;;;;;;5047959;28;20032;-78
2023/10/27 08:35:41;;;;;;;0.50;0.32;;;11.60;1.00;;;;;;5035605;28;20037;-79
2023/10/27 08:38:08;;;;;;;0.00;0.00;;;11.50;17.00;;;;;;5026422;28;20045;-79
2023/10/27 08:40:35;;;;;;;0.20;0.20;;;11.50;1.00;;;;;;5047395;28;20032;-78
2023/10/27 08:43:06;;;;;;;0.20;0.20;;;11.50;1.00;;;;;;5048774;28;20032;-78
2023/10/27 08:45:34;;;;;;;;;;;11.60;1.00;;;;;;5048184;28;20036;-77
2023/10/27 08:48:00;;;;;;;0.30;0.30;;;11.50;1.00;;;;;;5044131;28;19923;-79
2023/10/27 08:50:29;;;;;;;0.03;0.03;;;11.50;1.00;;;;;;5041520;28;20033;-79
2023/10/27 08:52:55;;;;;;;0.10;0.10;;;11.60;1.00;;;;;;5044143;28;20433;-80
2023/10/27 08:55:22;;;;;;;5.82;0.40;;;11.70;1.00;;;;;;5047881;28;20032;-80
2023/10/27 08:57:48;;;;;;;0.00;0.00;;;11.60;1.00;;;;;;5048512;28;20034;-81
2023/10/27 09:00:16;;;;;;;0.00;0.00;;;11.70;1.00;;;;;;5048759;28;20362;-85
2023/10/27 09:02:42;;;;;;;0.08;0.08;;;11.70;1.00;;;;;;5047770;28;20029;-80
2023/10/27 09:05:10;;;;;;;0.15;0.10;;;11.60;1.00;;;;;;5050640;28;20375;-84
2023/10/27 09:07:36;;;;;;;0.00;0.00;;;11.70;1.00;;;;;;5047366;28;20406;-80
2023/10/27 09:10:04;;;;;;;0.10;0.10;;;11.60;1.00;;;;;;5046414;28;20035;-80
2023/10/27 09:12:31;;;;;;;0.00;0.00;;;11.70;1.00;;;;;;5035585;28;20044;-80
2023/10/27 09:15:08;;;;;;;0.30;0.30;;;11.60;1.00;;;;;;5049504;28;20121;-81
2023/10/27 09:17:57;;;;;;;0.10;0.10;;;11.70;1.00;;;;;;5046234;28;20033;-80
2023/10/27 09:20:25;;;;;;;0.10;0.10;;;11.80;1.00;;;;;;5031285;28;20045;-82
2023/10/27 09:23:02;;;;;;;0.13;0.13;;;11.70;1.00;;;;;;5049421;28;20033;-80
2023/10/27 09:25:33;;;;;;;0.47;0.32;;;11.80;1.00;;;;;;5048299;28;20469;-80
2023/10/27 09:28:02;;;;;;;0.10;0.10;;;11.90;1.00;;;;;;5029362;28;20053;-80
2023/10/27 09:30:30;;;;;;;0.10;0.10;;;11.90;1.00;;;;;;5046711;28;20041;-80
2023/10/27 09:33:16;;;;;;;0.00;0.00;;;11.90;1.00;;;;;;5044622;28;20397;-81
2023/10/27 09:35:44;;;;;;;0.17;0.17;;;11.90;1.00;;;;;;5050827;28;20036;-77
2023/10/27 09:38:12;;;;;;;0.20;0.10;;;12.00;1.00;;;;;;5034216;28;20029;-79
2023/10/27 09:40:41;;;;;;;1.55;0.52;;;12.00;1.00;;;;;;5032770;28;20036;-79
2023/10/27 09:43:14;;;;;;;0.10;0.10;;;12.00;1.00;;;;;;5041344;28;20037;-78
2023/10/27 09:45:51;;;;;;;0.30;0.20;;;12.10;1.00;;;;;;5053175;28;20037;-78
2023/10/27 09:48:23;;;;;;;0.10;0.10;;;12.10;1.00;;;;;;5047738;28;20036;-78
2023/10/27 09:50:52;;;;;;;0.10;0.10;;;12.10;1.00;;;;;;5049623;28;20032;-78
2023/10/27 09:53:18;;;;;;;0.20;0.20;;;12.10;1.00;;;;;;5049872;28;20450;-78
2023/10/27 09:55:45;;;;;;;0.10;0.10;;;12.20;1.00;;;;;;5050728;28;20040;-79
2023/10/27 09:58:11;;;;;;;0.35;0.28;;;12.20;1.00;;;;;;5046568;28;20029;-78
2023/10/27 10:00:39;;;;;;;0.10;0.10;;;12.30;1.00;;;;;;5047892;28;20465;-76
2023/10/27 10:03:06;;;;;;;1.40;0.60;;;12.30;1.00;;;;;;5049192;28;20029;-78
2023/10/27 10:06:09;;;;;;;0.20;0.20;;;12.40;1.00;;;;;;5051744;28;20025;-77
2023/10/27 10:08:35;;;;;;;4.88;0.52;;;12.60;1.00;;;;;;5046527;28;20501;-77
2023/10/27 10:11:17;;;;;;;0.00;0.00;;;12.70;1.00;;;;;;5050255;28;20032;-78
2023/10/27 10:13:44;;;;;;;0.10;0.10;;;12.80;1.00;;;;;;5051505;28;20029;-76
2023/10/27 10:16:12;;;;;;;0.73;0.30;;;12.80;1.00;;;;;;5049169;28;20496;-77
2023/10/27 10:18:49;;;;;;;0.10;0.10;;;12.80;1.00;;;;;;5054287;28;20033;-76
2023/10/27 10:21:32;;;;;;;0.05;0.05;;;12.80;1.00;;;;;;5068467;28;20025;-77
2023/10/27 10:24:01;;;;;;;0.28;0.28;;;12.80;1.00;;;;;;5053553;28;20112;-76
2023/10/27 10:27:05;;;;;;;0.10;0.10;;;12.90;1.00;;;;;;5034824;28;20032;-77
2023/10/27 10:29:35;;;;;;;0.15;0.15;;;13.00;1.00;;;;;;5051292;28;20041;-77
2023/10/27 10:32:33;;;;;;;0.00;0.00;;;13.00;1.00;;;;;;5051856;28;20037;-77
2023/10/27 10:35:21;;;;;;;0.85;0.60;;;13.00;1.00;;;;;;5050574;28;20033;-77
2023/10/27 10:37:48;;;;;;;0.45;0.10;;;13.00;1.00;;;;;;5053141;28;20040;-77
2023/10/27 10:40:33;;;;;;;0.20;0.20;;;13.00;1.00;;;;;;5058497;28;20036;-77
2023/10/27 10:43:23;;;;;;;0.00;0.00;;;13.20;1.00;;;;;;5051875;28;20040;-77
2023/10/27 10:45:59;;;;;;;1.43;0.60;;;13.30;1.00;;;;;;5046567;28;20041;-76
2023/10/27 10:48:28;;;;;;;0.13;0.13;;;13.30;1.00;;;;;;5044301;28;20052;-77
2023/10/27 10:51:04;;;;;;;0.10;0.10;;;13.30;99.90;;;;;;5052274;28;20037;-76
2023/10/27 10:53:30;;;;;;;0.75;0.38;;;13.30;99.90;;;;;;5016487;28;20036;-76
2023/10/27 10:55:58;;;;;;;14.77;1.23;;;13.30;99.90;;;;;;5049330;28;20044;-77
2023/10/27 10:58:26;;;;;;;0.10;0.10;;;13.20;99.90;;;;;;5049072;28;20052;-78
2023/10/27 11:00:55;;;;;;;0.70;0.38;;;13.10;99.90;;;;;;5034226;28;20470;-78
2023/10/27 11:03:24;;;;;;;0.55;0.50;;;13.20;99.90;;;;;;5016247;28;20048;-78
2023/10/27 11:05:54;;;;;;;0.17;0.17;;;13.20;99.90;;;;;;5051959;28;20041;-77
2023/10/27 11:08:25;;;;;;;0.00;0.00;;;13.20;99.90;;;;;;5049007;28;20040;-77
2023/10/27 11:10:58;;;;;;;0.00;0.00;;;13.30;99.90;;;;;;5040372;28;20470;-77
2023/10/27 11:13:25;;;;;;;0.30;0.30;;;13.40;99.90;;;;;;5044478;28;20040;-76
2023/10/27 11:15:51;;;;;;;0.10;0.10;;;13.60;99.90;;;;;;5032734;28;20048;-79
2023/10/27 11:18:18;;;;;;;0.08;0.08;;;13.90;99.90;;;;;;5047693;28;20046;-78
2023/10/27 11:20:45;;;;;;;0.30;0.30;;;14.00;99.90;;;;;;5048663;28;20033;-76
2023/10/27 11:23:13;;;;;;;0.00;0.00;;;14.00;99.90;;;;;;5049473;28;20033;-77
2023/10/27 11:25:40;;;;;;;1.02;0.55;;;14.10;99.90;;;;;;5027543;28;20463;-77
2023/10/27 11:28:26;;;;;;;0.10;0.10;;;14.10;99.90;;;;;;5036645;28;20041;-77
2023/10/27 11:31:19;;;;;;;0.20;0.13;;;14.10;99.90;;;;;;5035206;28;20032;-76
2023/10/27 11:34:05;;;;;;;0.10;0.10;;;14.10;99.90;;;;;;5051233;28;20033;-77
2023/10/27 11:36:36;;;;;;;0.10;0.10;;;14.20;99.90;;;;;;5040799;28;20041;-77
2023/10/27 11:39:13;;;;;;;0.10;0.10;;;14.30;99.90;;;;;;5061765;28;20047;-75
2023/10/27 11:41:48;;;;;;;0.00;0.00;;;14.30;99.90;;;;;;5066536;28;20014;-78
2023/10/27 11:44:15;;;;;;;0.10;0.08;;;14.40;99.90;;;;;;5059321;28;20037;-79
2023/10/27 11:46:53;;;;;;;0.45;0.45;;;14.40;99.90;;;;;;5047823;28;20029;-77
2023/10/27 11:49:20;;;;;;;0.20;0.20;;;14.30;99.90;;;;;;5049725;28;20037;-77
2023/10/27 11:51:49;;;;;;;0.00;0.00;;;14.20;99.90;;;;;;5051550;28;20029;-76
2023/10/27 11:54:15;;;;;;;0.10;0.10;;;14.20;99.90;;;;;;5052085;28;20029;-78
2023/10/27 11:56:42;;;;;;;0.00;0.00;;;14.20;99.90;;;;;;5050143;28;20029;-77
2023/10/27 11:59:10;;;;;;;0.10;0.10;;;14.10;99.90;;;;;;5050632;28;20033;-76
2023/10/27 12:01:37;;;;;;;2.97;0.45;;;14.10;99.90;;;;;;5049342;28;20284;-77
2023/10/27 12:04:07;;;;;;;1.38;1.10;;;14.00;99.90;;;;;;5050741;28;20409;-76
2023/10/27 12:06:34;;;;;;;0.10;0.10;;;13.90;99.90;;;;;;5048004;28;20040;-80
2023/10/27 12:09:02;;;;;;;0.93;0.57;;;13.80;99.90;;;;;;5047258;28;20063;-78
2023/10/27 12:11:29;;;;;;;0.30;0.30;;;13.70;99.90;;;;;;4981551;28;20045;-79
2023/10/27 12:13:56;;;;;;;0.10;0.10;;;13.70;99.90;;;;;;5016954;28;20137;-79
2023/10/27 12:16:22;;;;;;;0.00;0.00;;;13.60;99.90;;;;;;5012883;28;20078;-76
2023/10/27 12:18:49;;;;;;;0.00;0.00;;;13.50;99.90;;;;;;5011456;28;20060;-76
2023/10/27 12:21:15;;;;;;;1.85;1.00;;;13.40;99.90;;;;;;5016571;28;20030;-76
2023/10/27 12:23:42;;;;;;;0.10;0.10;;;13.30;99.90;;;;;;5014893;28;20087;-77
2023/10/27 12:26:09;;;;;;;0.10;0.10;;;13.20;1.00;;;;;;5013010;28;20034;-76
2023/10/27 12:28:35;;;;;;;0.05;0.05;;;13.10;1.00;;;;;;5012333;28;20046;-76
2023/10/27 12:31:02;;;;;;;0.17;0.17;;;13.10;1.00;;;;;;5014675;28;20049;-75
2023/10/27 12:33:28;;;;;;;1.08;0.65;;;13.10;1.00;;;;;;5014612;28;20417;-76
2023/10/27 12:35:55;;;;;;;0.47;0.20;;;13.10;1.00;;;;;;5017134;28;20060;-75
2023/10/27 12:38:21;;;;;;;0.10;0.10;;;13.30;1.00;;;;;;5012099;28;20049;-77
2023/10/27 12:40:47;;;;;;;0.00;0.00;;;13.40;1.00;;;;;;5016017;28;20103;-77
2023/10/27 12:43:14;;;;;;;0.35;0.35;;;13.60;1.00;;;;;;4995570;28;20125;-77
2023/10/27 12:45:43;;;;;;;0.10;0.10;;;13.60;1.00;;;;;;5012452;28;20034;-76
2023/10/27 12:48:10;;;;;;;0.05;0.05;;;13.60;1.00;;;;;;5016274;28;20057;-77
2023/10/27 12:50:36;;;;;;;0.05;0.05;;;13.60;1.00;;;;;;5049107;28;20135;-76
2023/10/27 12:53:03;;;;;;;0.22;0.20;;;13.60;99.90;;;;;;5041091;28;20036;-76
2023/10/27 12:55:30;;;;;;;0.20;0.20;;;13.50;99.90;;;;;;5048205;28;20029;-78